Time;durP1;ratioP1;P1;durP2;ratioP2;P2;SDS_P1;SDS_P2;PMS_P1;PMS_P2;Temp;Humidity;BMP_temperature;BMP_pressure;BME280_temperature;BME280_humidity;BME280_pressure;Samples;Min_cycle;Max_cycle;Signal;HPM_P1;HPM_P2
2022/10/28 00:01:07;;;;;;;;;;;15.00;99.90;;;;;;5014975;28;19924;-69
2022/10/28 00:03:35;;;;;;;;;;;15.00;99.90;;;;;;4970762;28;143965;-69
2022/10/28 00:06:03;;;;;;;;;;;15.00;99.90;;;;;;5024056;28;19927;-69
2022/10/28 00:08:28;;;;;;;;;;;15.00;99.90;;;;;;5005338;28;186464;-68
2022/10/28 00:11:24;;;;;;;;;;;15.10;99.90;;;;;;5022058;28;19921;-68
2022/10/28 00:13:55;;;;;;;;;;;15.10;99.90;;;;;;4961496;28;211342;-69
2022/10/28 00:16:23;;;;;;;;;;;15.10;99.90;;;;;;5004476;28;19958;-69
2022/10/28 00:18:51;;;;;;;;;;;15.10;99.90;;;;;;4986354;28;167350;-69
2022/10/28 00:21:18;;;;;;;;;;;15.20;99.90;;;;;;5018674;28;19921;-69
2022/10/28 00:23:44;;;;;;;;;;;15.10;99.90;;;;;;4995617;28;152488;-69
2022/10/28 00:26:11;;;;;;;;;;;15.10;99.90;;;;;;5019021;28;19968;-69
2022/10/28 00:28:41;;;;;;;;;;;15.10;99.90;;;;;;4978818;28;166770;-69
2022/10/28 00:31:08;;;;;;;;;;;15.10;99.90;;;;;;5007433;28;19936;-69
2022/10/28 00:33:34;;;;;;;;;;;15.10;99.90;;;;;;4998274;28;207510;-69
2022/10/28 00:36:14;;;;;;;;;;;15.10;99.90;;;;;;5020385;28;19925;-69
2022/10/28 00:38:41;;;;;;;;;;;15.10;99.90;;;;;;4966037;28;207903;-69
2022/10/28 00:41:07;;;;;;;;;;;15.10;99.90;;;;;;5024937;28;20063;-69
2022/10/28 00:43:38;;;;;;;;;;;15.00;99.90;;;;;;4971249;28;207660;-69
2022/10/28 00:46:06;;;;;;;;;;;15.10;99.90;;;;;;5053707;28;20373;-69
2022/10/28 00:48:32;;;;;;;;;;;15.10;99.90;;;;;;4983827;28;161933;-69
2022/10/28 00:50:58;;;;;;;;;;;15.10;99.90;;;;;;5024938;28;19921;-69
2022/10/28 00:53:26;;;;;;;;;;;15.20;99.90;;;;;;4972868;28;166544;-69
2022/10/28 00:55:53;;;;;;;;;;;15.10;99.90;;;;;;5010426;28;19920;-69
2022/10/28 00:58:21;;;;;;;;;;;15.10;99.90;;;;;;4970484;28;206285;-68
2022/10/28 01:00:47;;;;;;;;;;;15.10;99.90;;;;;;5019197;28;19921;-68
2022/10/28 01:03:14;;;;;;;;;;;15.10;99.90;;;;;;4955999;28;216024;-68
2022/10/28 01:05:41;;;;;;;;;;;15.10;99.90;;;;;;5024852;28;19920;-68
2022/10/28 01:08:07;;;;;;;;;;;15.00;99.90;;;;;;4978791;28;144821;-69
2022/10/28 01:11:03;;;;;;;;;;;15.00;99.90;;;;;;5023522;28;19932;-68
2022/10/28 01:13:47;;;;;;;;;;;15.00;99.90;;;;;;4969550;28;212806;-68
2022/10/28 01:16:22;;;;;;;;;;;15.00;99.90;;;;;;5018737;28;19936;-68
2022/10/28 01:18:54;;;;;;;;;;;14.90;99.90;;;;;;4968509;28;143392;-68
2022/10/28 01:21:35;;;;;;;;;;;14.90;99.90;;;;;;4992037;28;19926;-68
2022/10/28 01:24:13;;;;;;;;;;;14.90;99.90;;;;;;4967136;28;209050;-68
2022/10/28 01:26:51;;;;;;;;;;;14.90;99.90;;;;;;5019720;28;19925;-68
2022/10/28 01:29:17;;;;;;;;;;;14.80;99.90;;;;;;4967817;28;207033;-69
2022/10/28 01:31:46;;;;;;;;;;;14.80;99.90;;;;;;5017593;28;20537;-69
2022/10/28 01:34:12;;;;;;;;;;;14.80;99.90;;;;;;4968110;28;134955;-68
2022/10/28 01:36:44;;;;;;;;;;;14.80;99.90;;;;;;5007571;28;20024;-68
2022/10/28 01:39:13;;;;;;;;;;;14.80;99.90;;;;;;4971655;28;118195;-68
2022/10/28 01:41:47;;;;;;;;;;;14.80;99.90;;;;;;5017819;28;19932;-68
2022/10/28 01:44:12;;;;;;;;;;;14.80;99.90;;;;;;4971646;28;132622;-68
2022/10/28 01:46:40;;;;;;;;;;;14.70;99.90;;;;;;5020766;28;19928;-68
2022/10/28 01:49:14;;;;;;;;;;;14.70;99.90;;;;;;4936381;28;208018;-69
2022/10/28 01:51:43;;;;;;;;;;;14.70;99.90;;;;;;5021268;28;19932;-69
2022/10/28 01:54:12;;;;;;;;;;;14.70;99.90;;;;;;4987581;28;204477;-69
2022/10/28 01:56:40;;;;;;;;;;;14.80;99.90;;;;;;5022410;28;20444;-69
2022/10/28 01:59:08;;;;;;;;;;;14.70;99.90;;;;;;4973553;28;196165;-69
2022/10/28 02:01:34;;;;;;;;;;;14.80;99.90;;;;;;5020353;28;19947;-68
2022/10/28 02:04:01;;;;;;;;;;;14.70;99.90;;;;;;4946143;28;247259;-69
2022/10/28 02:06:28;;;;;;;;;;;14.70;99.90;;;;;;5012803;28;19924;-68
2022/10/28 02:09:05;;;;;;;;;;;14.70;99.90;;;;;;4973011;28;144352;-68
2022/10/28 02:11:40;;;;;;;;;;;14.60;99.90;;;;;;5000794;28;19921;-68
2022/10/28 02:14:16;;;;;;;;;;;14.70;99.90;;;;;;4974461;28;205154;-68
2022/10/28 02:16:48;;;;;;;;;;;14.70;99.90;;;;;;5019228;28;20488;-68
2022/10/28 02:19:14;;;;;;;;;;;14.70;99.90;;;;;;4969559;28;207646;-68
2022/10/28 02:21:40;;;;;;;;;;;14.70;99.90;;;;;;5045583;28;19932;-67
2022/10/28 02:24:06;;;;;;;;;;;14.70;99.90;;;;;;4976867;28;150758;-68
2022/10/28 02:26:45;;;;;;;;;;;14.70;99.90;;;;;;5032940;28;19928;-68
2022/10/28 02:29:11;;;;;;;;;;;14.80;99.90;;;;;;4976785;28;138846;-68
2022/10/28 02:31:40;;;;;;;;;;;14.70;99.90;;;;;;5025340;28;19924;-68
2022/10/28 02:34:08;;;;;;;;;;;14.70;99.90;;;;;;4969608;28;127239;-68
2022/10/28 02:36:36;;;;;;;;;;;14.70;99.90;;;;;;5007251;28;19925;-68
2022/10/28 02:39:03;;;;;;;;;;;14.70;99.90;;;;;;4973261;28;206347;-68
2022/10/28 02:41:31;;;;;;;;;;;14.70;99.90;;;;;;5032613;28;19917;-67
2022/10/28 02:43:59;;;;;;;;;;;14.80;99.90;;;;;;4969842;28;148262;-68
2022/10/28 02:46:27;;;;;;;;;;;14.70;99.90;;;;;;5022551;28;19921;-68
2022/10/28 02:48:55;;;;;;;;;;;14.70;99.90;;;;;;4974968;28;101210;-68
2022/10/28 02:51:33;;;;;;;;;;;14.70;99.90;;;;;;5004866;28;19928;-69
2022/10/28 02:53:59;;;;;;;;;;;14.60;99.90;;;;;;4979261;28;143816;-69
2022/10/28 02:56:27;;;;;;;;;;;14.60;99.90;;;;;;5022650;28;19917;-68
2022/10/28 02:58:53;;;;;;;;;;;14.60;99.90;;;;;;4978471;28;203592;-68
2022/10/28 03:01:19;;;;;;;;;;;14.50;99.90;;;;;;5006540;28;19921;-68
2022/10/28 03:03:45;;;;;;;;;;;14.50;99.90;;;;;;4965321;28;206726;-68
2022/10/28 03:06:11;;;;;;;;;;;14.50;99.90;;;;;;5018092;28;20007;-68
2022/10/28 03:08:37;;;;;;;;;;;14.50;99.90;;;;;;4981510;28;176948;-68
2022/10/28 03:11:03;;;;;;;;;;;14.50;99.90;;;;;;5025696;28;20385;-68
2022/10/28 03:13:29;;;;;;;;;;;14.50;99.90;;;;;;4981520;28;137067;-68
2022/10/28 03:15:55;;;;;;;;;;;14.40;99.90;;;;;;5018983;28;21994;-68
2022/10/28 03:18:21;;;;;;;;;;;14.40;99.90;;;;;;4962846;28;199767;-68
2022/10/28 03:20:47;;;;;;;;;;;14.40;99.90;;;;;;5044019;28;19928;-68
2022/10/28 03:23:13;;;;;;;;;;;14.40;99.90;;;;;;4970258;28;202164;-68
2022/10/28 03:25:39;;;;;;;;;;;14.30;99.90;;;;;;5022923;28;19928;-68
2022/10/28 03:28:05;;;;;;;;;;;14.30;99.90;;;;;;4986009;28;218838;-68
2022/10/28 03:30:31;;;;;;;;;;;14.20;99.90;;;;;;5048128;28;19920;-69
2022/10/28 03:32:57;;;;;;;;;;;14.20;99.90;;;;;;4983641;28;28519;-68
2022/10/28 03:35:23;;;;;;;;;;;14.10;99.90;;;;;;5037086;28;19924;-68
2022/10/28 03:37:49;;;;;;;;;;;14.10;99.90;;;;;;4987187;28;204370;-69
2022/10/28 03:40:15;;;;;;;;;;;14.10;99.90;;;;;;5029547;28;19970;-69
2022/10/28 03:42:41;;;;;;;;;;;14.10;99.90;;;;;;4962504;28;208821;-68
2022/10/28 03:45:07;;;;;;;;;;;14.00;99.90;;;;;;5007422;28;20374;-68
2022/10/28 03:47:34;;;;;;;;;;;14.00;99.90;;;;;;5011058;28;208078;-68
2022/10/28 03:50:00;;;;;;;;;;;14.00;99.90;;;;;;4960327;28;19928;-69
2022/10/28 03:52:26;;;;;;;;;;;14.00;99.90;;;;;;5025853;28;19965;-67
2022/10/28 03:54:52;;;;;;;;;;;14.00;99.90;;;;;;4956545;28;214201;-67
2022/10/28 03:57:18;;;;;;;;;;;14.00;99.90;;;;;;5022295;28;19921;-68
2022/10/28 03:59:43;;;;;;;;;;;14.00;99.90;;;;;;4958759;28;205606;-69
2022/10/28 04:02:09;;;;;;;;;;;14.00;99.90;;;;;;5019975;28;19916;-69
2022/10/28 04:04:35;;;;;;;;;;;14.00;99.90;;;;;;4954917;28;177992;-69
2022/10/28 04:07:01;;;;;;;;;;;14.00;99.90;;;;;;5054495;28;19921;-69
2022/10/28 04:09:27;;;;;;;;;;;14.10;99.90;;;;;;4978261;28;207591;-70
2022/10/28 04:11:53;;;;;;;;;;;14.10;99.90;;;;;;5017821;28;21202;-68
2022/10/28 04:14:19;;;;;;;;;;;14.10;99.90;;;;;;4982436;28;115875;-68
2022/10/28 04:16:45;;;;;;;;;;;14.10;99.90;;;;;;5027567;28;19917;-68
2022/10/28 04:19:11;;;;;;;;;;;14.10;99.90;;;;;;4990225;28;185451;-68
2022/10/28 04:21:37;;;;;;;;;;;14.00;99.90;;;;;;5001127;28;19932;-68
2022/10/28 04:24:03;;;;;;;;;;;14.00;99.90;;;;;;4973073;28;220467;-68
2022/10/28 04:26:30;;;;;;;;;;;14.10;99.90;;;;;;5018871;28;19928;-68
2022/10/28 04:28:56;;;;;;;;;;;14.00;99.90;;;;;;4961656;28;167489;-68
2022/10/28 04:31:22;;;;;;;;;;;14.00;99.90;;;;;;5018887;28;19921;-68
2022/10/28 04:33:48;;;;;;;;;;;14.00;99.90;;;;;;4968405;28;176072;-69
2022/10/28 04:36:14;;;;;;;;;;;13.90;99.90;;;;;;5010233;28;19924;-69
2022/10/28 04:38:40;;;;;;;;;;;14.00;99.90;;;;;;4963147;28;169717;-69
2022/10/28 04:41:07;;;;;;;;;;;14.00;99.90;;;;;;5012359;28;20011;-68
2022/10/28 04:43:33;;;;;;;;;;;14.00;99.90;;;;;;4982904;28;181786;-68
2022/10/28 04:46:04;;;;;;;;;;;13.90;99.90;;;;;;5024028;28;19921;-72
2022/10/28 04:48:31;;;;;;;;;;;13.90;99.90;;;;;;4953506;28;206887;-69
2022/10/28 04:50:57;;;;;;;;;;;13.90;99.90;;;;;;5043429;28;19924;-69
2022/10/28 04:53:23;;;;;;;;;;;13.90;99.90;;;;;;4979403;28;74995;-69
2022/10/28 04:55:49;;;;;;;;;;;13.90;99.90;;;;;;5049070;28;19917;-69
2022/10/28 04:58:15;;;;;;;;;;;13.80;99.90;;;;;;4972492;28;168030;-69
2022/10/28 05:00:41;;;;;;;;;;;13.80;99.90;;;;;;5026039;28;19921;-68
2022/10/28 05:03:07;;;;;;;;;;;13.80;99.90;;;;;;4987056;28;214027;-68
2022/10/28 05:05:33;;;;;;;;;;;13.80;99.90;;;;;;5022103;28;19933;-68
2022/10/28 05:07:58;;;;;;;;;;;13.80;99.90;;;;;;4976455;28;212229;-69
2022/10/28 05:10:24;;;;;;;;;;;13.80;99.90;;;;;;5042187;28;19917;-67
2022/10/28 05:12:50;;;;;;;;;;;13.70;99.90;;;;;;4981537;28;205212;-68
2022/10/28 05:15:16;;;;;;;;;;;13.70;99.90;;;;;;5022608;28;19924;-68
2022/10/28 05:17:43;;;;;;;;;;;13.70;99.90;;;;;;4971098;28;207714;-67
2022/10/28 05:20:10;;;;;;;;;;;13.70;99.90;;;;;;5035173;28;19932;-68
2022/10/28 05:22:36;;;;;;;;;;;13.70;99.90;;;;;;4990743;28;208736;-69
2022/10/28 05:25:03;;;;;;;;;;;13.70;99.90;;;;;;4994078;28;125591;-69
2022/10/28 05:27:29;;;;;;;;;;;13.60;99.90;;;;;;5017294;28;211455;-68
2022/10/28 05:29:55;;;;;;;;;;;13.60;99.90;;;;;;4943786;28;173926;-69
2022/10/28 05:32:21;;;;;;;;;;;13.60;99.90;;;;;;5024428;28;20374;-69
2022/10/28 05:34:47;;;;;;;;;;;13.60;99.90;;;;;;4956254;28;206723;-69
2022/10/28 05:37:13;;;;;;;;;;;13.60;99.90;;;;;;5018981;28;19924;-68
2022/10/28 05:39:39;;;;;;;;;;;13.50;99.90;;;;;;4976733;28;206694;-68
2022/10/28 05:42:05;;;;;;;;;;;13.50;99.90;;;;;;5024493;28;19924;-69
2022/10/28 05:44:30;;;;;;;;;;;13.50;99.90;;;;;;4966450;28;207685;-69
2022/10/28 05:46:57;;;;;;;;;;;13.50;99.90;;;;;;5022796;28;19924;-69
2022/10/28 05:49:23;;;;;;;;;;;13.60;99.90;;;;;;4975061;28;172490;-69
2022/10/28 05:51:49;;;;;;;;;;;13.60;99.90;;;;;;5049511;28;19960;-68
2022/10/28 05:54:15;;;;;;;;;;;13.60;99.90;;;;;;4984192;28;218351;-69
2022/10/28 05:56:41;;;;;;;;;;;13.70;99.90;;;;;;5018223;28;19921;-69
2022/10/28 05:59:07;;;;;;;;;;;13.70;99.90;;;;;;4958839;28;208315;-68
2022/10/28 06:01:33;;;;;;;;;;;13.70;99.90;;;;;;5013760;28;19922;-69
2022/10/28 06:03:59;;;;;;;;;;;13.80;99.90;;;;;;4957405;28;206852;-68
2022/10/28 06:06:26;;;;;;;;;;;13.80;99.90;;;;;;4998492;28;19924;-67
2022/10/28 06:08:52;;;;;;;;;;;13.80;99.90;;;;;;4970536;28;163567;-67
2022/10/28 06:11:18;;;;;;;;;;;13.80;99.90;;;;;;5019979;28;19924;-68
2022/10/28 06:13:44;;;;;;;;;;;13.80;99.90;;;;;;4972412;28;168154;-68
2022/10/28 06:16:10;;;;;;;;;;;13.80;99.90;;;;;;5028352;28;19931;-69
2022/10/28 06:18:36;;;;;;;;;;;13.80;99.90;;;;;;4972690;28;138299;-67
2022/10/28 06:21:03;;;;;;;;;;;13.80;99.90;;;;;;5016924;28;19947;-68
2022/10/28 06:23:29;;;;;;;;;;;13.80;99.90;;;;;;4971420;28;208154;-68
2022/10/28 06:25:55;;;;;;;;;;;13.80;99.90;;;;;;5023061;28;19921;-68
2022/10/28 06:28:21;;;;;;;;;;;13.80;99.90;;;;;;4985642;28;208760;-69
2022/10/28 06:30:47;;;;;;;;;;;13.80;99.90;;;;;;5019290;28;19921;-69
2022/10/28 06:33:14;;;;;;;;;;;13.80;99.90;;;;;;4999427;28;207096;-68
2022/10/28 06:35:40;;;;;;;;;;;13.80;99.90;;;;;;5021212;28;19921;-68
2022/10/28 06:38:06;;;;;;;;;;;13.80;99.90;;;;;;4970462;28;210587;-68
2022/10/28 06:40:32;;;;;;;;;;;13.70;99.90;;;;;;5014063;28;20033;-68
2022/10/28 06:43:05;;;;;;;;;;;13.80;99.90;;;;;;4969931;28;179371;-68
2022/10/28 06:45:32;;;;;;;;;;;13.80;99.90;;;;;;5011951;28;19921;-68
2022/10/28 06:47:59;;;;;;;;;;;13.80;99.90;;;;;;4975521;28;207696;-68
2022/10/28 06:50:25;;;;;;;;;;;13.80;99.90;;;;;;5018064;28;19924;-68
2022/10/28 06:52:51;;;;;;;;;;;13.80;99.90;;;;;;4995059;28;208460;-69
2022/10/28 06:55:17;;;;;;;;;;;13.90;99.90;;;;;;4990767;28;20736;-68
2022/10/28 06:57:43;;;;;;;;;;;13.90;99.90;;;;;;4963825;28;207443;-68
2022/10/28 07:00:09;;;;;;;;;;;14.00;99.90;;;;;;5014961;28;19927;-68
2022/10/28 07:02:35;;;;;;;;;;;14.00;99.90;;;;;;4970740;28;218005;-69
2022/10/28 07:05:01;;;;;;;;;;;14.10;99.90;;;;;;5004966;28;19929;-69
2022/10/28 07:07:27;;;;;;;;;;;14.10;99.90;;;;;;5016508;28;19974;-68
2022/10/28 07:09:53;;;;;;;;;;;14.20;99.90;;;;;;4947823;28;196419;-68
2022/10/28 07:12:19;;;;;;;;;;;14.20;99.90;;;;;;5011627;28;19925;-68
2022/10/28 07:14:45;;;;;;;;;;;14.30;99.90;;;;;;4999394;28;178864;-67
2022/10/28 07:17:11;;;;;;;;;;;14.30;99.90;;;;;;5023272;28;19925;-68
2022/10/28 07:19:37;;;;;;;;;;;14.40;99.90;;;;;;4940161;28;220905;-68
2022/10/28 07:22:03;;;;;;;;;;;14.40;99.90;;;;;;5017876;28;19917;-71
2022/10/28 07:24:28;;;;;;;;;;;14.50;99.90;;;;;;4979261;28;101744;-70
2022/10/28 07:26:55;;;;;;;;;;;14.50;99.90;;;;;;5023026;28;20289;-71
2022/10/28 07:29:20;;;;;;;;;;;14.60;99.90;;;;;;4983067;28;208328;-71
2022/10/28 07:31:46;;;;;;;;;;;14.60;99.90;;;;;;5023756;28;19952;-71
2022/10/28 07:34:12;;;;;;;;;;;14.70;99.90;;;;;;4976857;28;176308;-70
2022/10/28 07:36:38;;;;;;;;;;;14.80;99.90;;;;;;5002578;28;19925;-70
2022/10/28 07:39:04;;;;;;;;;;;14.80;99.90;;;;;;4975341;28;207548;-71
2022/10/28 07:41:30;;;;;;;;;;;14.90;99.90;;;;;;5024795;28;19987;-71
2022/10/28 07:43:56;;;;;;;;;;;14.90;99.90;;;;;;4959281;28;192712;-69
2022/10/28 07:46:22;;;;;;;;;;;15.00;99.90;;;;;;5029295;28;19921;-69
2022/10/28 07:48:48;;;;;;;;;;;15.00;99.90;;;;;;4961666;28;156734;-69
2022/10/28 07:51:14;;;;;;;;;;;15.10;99.90;;;;;;5007787;28;19921;-68
2022/10/28 07:53:41;;;;;;;;;;;15.10;99.90;;;;;;4977050;28;155484;-69
2022/10/28 07:56:08;;;;;;;;;;;15.20;99.90;;;;;;5022437;28;19921;-69
2022/10/28 07:58:35;;;;;;;;;;;15.30;99.90;;;;;;4958147;28;163840;-69
2022/10/28 08:01:02;;;;;;;;;;;15.30;99.90;;;;;;5019092;28;19925;-69
2022/10/28 08:03:28;;;;;;;;;;;15.30;99.90;;;;;;4961463;28;203199;-69
2022/10/28 08:06:05;;;;;;;;;;;15.40;99.90;;;;;;5020489;28;20394;-69
2022/10/28 08:08:31;;;;;;;;;;;15.40;99.90;;;;;;4971740;28;232891;-70
2022/10/28 08:10:57;;;;;;;;;;;15.50;99.90;;;;;;5012099;28;20349;-70
2022/10/28 08:13:23;;;;;;;;;;;15.60;99.90;;;;;;4973177;28;153073;-68
2022/10/28 08:15:52;;;;;;;;;;;15.60;99.90;;;;;;5003369;28;19923;-69
2022/10/28 08:18:19;;;;;;;;;;;15.60;99.90;;;;;;4966477;28;168203;-69
2022/10/28 08:20:44;;;;;;;;;;;15.70;99.90;;;;;;5010082;28;19921;-69
2022/10/28 08:23:10;;;;;;;;;;;15.80;99.90;;;;;;4952836;28;158475;-69
2022/10/28 08:25:36;;;;;;;;;;;15.80;99.90;;;;;;5024495;28;19921;-69
2022/10/28 08:28:02;;;;;;;;;;;15.90;99.90;;;;;;4971358;28;207491;-69
2022/10/28 08:30:28;;;;;;;;;;;15.90;99.90;;;;;;5021265;28;19921;-69
2022/10/28 08:32:54;;;;;;;;;;;16.00;99.90;;;;;;4975729;28;206215;-69
2022/10/28 08:35:20;;;;;;;;;;;16.10;99.90;;;;;;5043006;28;19920;-71
2022/10/28 08:37:52;;;;;;;;;;;16.20;99.90;;;;;;4965991;28;208317;-70
2022/10/28 08:40:20;;;;;;;;;;;16.30;99.90;;;;;;5020020;28;19917;-68
2022/10/28 08:42:48;;;;;;;;;;;16.30;99.90;;;;;;4964406;28;208038;-69
2022/10/28 08:45:49;;;;;;;;;;;16.40;99.90;;;;;;5021616;28;19921;-70
2022/10/28 08:48:30;;;;;;;;;;;16.50;99.90;;;;;;4994421;28;163830;-69
2022/10/28 08:51:19;;;;;;;;;;;16.60;99.90;;;;;;4996749;28;19932;-69
2022/10/28 08:53:48;;;;;;;;;;;16.70;99.90;;;;;;4924845;28;153013;-70
2022/10/28 08:56:33;;;;;;;;;;;16.80;99.90;;;;;;4953680;28;19928;-69
2022/10/28 08:59:01;;;;;;;;;;;16.90;99.90;;;;;;4920257;28;223666;-71
2022/10/28 09:01:40;;;;;;;;;;;16.90;99.90;;;;;;4962354;28;20299;-69
2022/10/28 09:04:21;;;;;;;;;;;17.00;99.90;;;;;;4910775;28;88646;-69
2022/10/28 09:06:47;;;;;;;;;;;17.10;99.90;;;;;;4973003;28;19924;-69
2022/10/28 09:09:20;;;;;;;;;;;17.20;99.90;;;;;;4933834;28;137855;-68
2022/10/28 09:11:46;;;;;;;;;;;17.10;99.90;;;;;;4962459;28;19921;-68
2022/10/28 09:14:14;;;;;;;;;;;17.20;99.90;;;;;;4917096;28;139823;-69
2022/10/28 09:16:43;;;;;;;;;;;17.20;99.90;;;;;;4981848;28;20315;-69
2022/10/28 09:19:27;;;;;;;;;;;17.30;99.90;;;;;;4927853;28;77676;-69
2022/10/28 09:22:05;;;;;;;;;;;17.30;99.90;;;;;;4957194;28;20427;-69
2022/10/28 09:24:44;;;;;;;;;;;17.40;99.90;;;;;;4883064;28;204627;-69
2022/10/28 09:27:16;;;;;;;;;;;17.40;99.90;;;;;;4932172;29;20335;-69
2022/10/28 09:29:45;;;;;;;;;;;17.50;99.90;;;;;;4890704;28;67480;-68
2022/10/28 09:32:24;;;;;;;;;;;17.50;99.90;;;;;;5023026;28;19928;-69
2022/10/28 09:34:55;;;;;;;;;;;17.60;99.90;;;;;;4954329;28;213815;-69
2022/10/28 09:37:23;;;;;;;;;;;17.60;99.90;;;;;;5023118;28;19924;-69
2022/10/28 09:39:51;;;;;;;;;;;17.60;99.90;;;;;;4970282;28;147391;-69
2022/10/28 09:42:29;;;;;;;;;;;17.70;99.90;;;;;;5027716;28;19925;-70
2022/10/28 09:44:57;;;;;;;;;;;17.70;99.90;;;;;;4983457;28;40202;-70
2022/10/28 09:47:29;;;;;;;;;;;17.70;99.90;;;;;;5020283;28;19916;-70
2022/10/28 09:49:57;;;;;;;;;;;17.80;99.90;;;;;;4980465;28;206384;-71
2022/10/28 09:52:28;;;;;;;;;;;17.80;99.90;;;;;;5023085;28;19941;-70
2022/10/28 09:54:56;;;;;;;;;;;17.80;99.90;;;;;;4964247;28;55275;-70
2022/10/28 09:57:27;;;;;;;;;;;17.90;99.90;;;;;;5025006;28;19935;-70
2022/10/28 09:59:53;;;;;;;;;;;17.90;99.90;;;;;;4980988;28;200752;-71
2022/10/28 10:02:25;;;;;;;;;;;17.90;99.90;;;;;;5005127;28;19925;-70
2022/10/28 10:04:51;;;;;;;;;;;17.90;99.90;;;;;;4980419;28;166581;-69
2022/10/28 10:07:24;;;;;;;;;;;18.00;99.90;;;;;;5020934;28;19979;-68
2022/10/28 10:09:50;;;;;;;;;;;18.00;99.90;;;;;;4950724;28;208464;-69
2022/10/28 10:12:16;;;;;;;;;;;18.00;99.90;;;;;;5023403;28;19932;-70
2022/10/28 10:14:47;;;;;;;;;;;18.10;99.90;;;;;;4968409;28;206184;-70
2022/10/28 10:17:31;;;;;;;;;;;18.10;99.90;;;;;;5016668;28;19936;-69
2022/10/28 10:20:00;;;;;;;;;;;18.10;99.90;;;;;;4940476;28;249275;-69
2022/10/28 10:22:36;;;;;;;;;;;18.20;99.90;;;;;;5030096;28;19928;-70
2022/10/28 10:25:03;;;;;;;;;;;18.30;99.90;;;;;;4946903;28;207102;-70
2022/10/28 10:27:30;;;;;;;;;;;18.30;99.90;;;;;;5011621;28;200102;-70
2022/10/28 10:29:57;;;;;;;;;;;18.40;99.90;;;;;;4968711;28;162338;-71
2022/10/28 10:32:28;;;;;;;;;;;18.50;99.90;;;;;;5018029;28;19926;-70
2022/10/28 10:35:01;;;;;;;;;;;18.60;99.90;;;;;;4972853;28;271046;-70
2022/10/28 10:37:28;;;;;;;;;;;18.60;99.90;;;;;;5018869;28;19924;-70
2022/10/28 10:39:59;;;;;;;;;;;18.70;99.90;;;;;;4961530;28;178702;-69
2022/10/28 10:42:26;;;;;;;;;;;18.80;99.90;;;;;;5017951;28;19917;-70
2022/10/28 10:44:58;;;;;;;;;;;18.90;99.90;;;;;;4987641;28;138749;-69
2022/10/28 10:47:24;;;;;;;;;;;18.90;99.90;;;;;;5021430;28;19928;-70
2022/10/28 10:49:50;;;;;;;;;;;19.00;99.90;;;;;;4965088;28;141177;-70
2022/10/28 10:52:22;;;;;;;;;;;19.10;99.90;;;;;;5025845;28;19928;-70
2022/10/28 10:55:00;;;;;;;;;;;19.20;99.90;;;;;;4984685;28;133239;-71
2022/10/28 10:57:26;;;;;;;;;;;19.30;99.90;;;;;;5025526;28;20306;-71
2022/10/28 10:59:53;;;;;;;;;;;19.30;99.90;;;;;;4973604;28;218404;-70
2022/10/28 11:02:19;;;;;;;;;;;19.40;99.90;;;;;;5021834;28;19917;-70
2022/10/28 11:04:49;;;;;;;;;;;19.50;99.90;;;;;;4985367;28;118553;-71
2022/10/28 11:07:16;;;;;;;;;;;19.60;99.90;;;;;;5025299;28;19929;-69
2022/10/28 11:09:45;;;;;;;;;;;19.70;99.90;;;;;;5004773;28;211798;-68
2022/10/28 11:12:31;;;;;;;;;;;19.70;99.90;;;;;;5022769;28;19935;-67
2022/10/28 11:14:58;;;;;;;;;;;19.80;99.90;;;;;;4986157;28;202840;-67
2022/10/28 11:17:29;;;;;;;;;;;19.90;99.90;;;;;;5010355;28;19924;-66
2022/10/28 11:19:56;;;;;;;;;;;19.90;99.90;;;;;;4979932;28;92679;-66
2022/10/28 11:22:40;;;;;;;;;;;20.00;99.90;;;;;;5016441;28;19932;-67
2022/10/28 11:25:17;;;;;;;;;;;20.10;99.90;;;;;;4944222;28;188809;-66
2022/10/28 11:27:42;;;;;;;;;;;20.10;99.90;;;;;;4969713;28;208559;-68
2022/10/28 11:30:13;;;;;;;;;;;20.20;99.90;;;;;;5008320;28;20011;-68
2022/10/28 11:32:58;;;;;;;;;;;20.20;99.90;;;;;;4979898;28;215424;-68
2022/10/28 11:35:24;;;;;;;;;;;20.30;99.90;;;;;;5018636;28;19917;-68
2022/10/28 11:38:01;;;;;;;;;;;20.30;99.90;;;;;;5009695;28;212392;-68
2022/10/28 11:40:39;;;;;;;;;;;20.40;99.90;;;;;;5028298;28;20298;-68
2022/10/28 11:43:23;;;;;;;;;;;20.50;99.90;;;;;;4997026;28;147480;-71
2022/10/28 11:45:56;;;;;;;;;;;20.60;99.90;;;;;;5014524;28;19917;-68
2022/10/28 11:48:41;;;;;;;;;;;20.90;99.90;;;;;;4967644;28;157451;-67
2022/10/28 11:51:26;;;;;;;;;;;21.40;99.90;;;;;;5007528;28;19921;-70
2022/10/28 11:53:54;;;;;;;;;;;21.80;99.90;;;;;;4972489;28;204425;-69
2022/10/28 11:56:31;;;;;;;;;;;21.80;99.90;;;;;;5019115;28;19927;-68
2022/10/28 11:59:00;;;;;;;;;;;21.90;99.90;;;;;;4990248;28;154269;-69
2022/10/28 12:01:55;;;;;;;;;;;22.10;99.90;;;;;;5000016;28;20382;-69
2022/10/28 12:04:31;;;;;;;;;;;22.40;99.90;;;;;;4958826;28;186116;-68
2022/10/28 12:07:00;;;;;;;;;;;22.40;99.90;;;;;;5024279;28;19963;-68
2022/10/28 12:09:29;;;;;;;;;;;22.30;99.90;;;;;;4980276;28;151981;-69
2022/10/28 12:12:24;;;;;;;;;;;22.10;99.90;;;;;;5040606;28;19924;-69
2022/10/28 12:15:08;;;;;;;;;;;21.80;99.90;;;;;;4959762;28;203908;-69
2022/10/28 12:17:43;;;;;;;;;;;21.70;99.90;;;;;;5023463;28;174394;-68
2022/10/28 12:20:23;;;;;;;;;;;21.50;99.90;;;;;;5002818;28;19924;-68
2022/10/28 12:22:51;;;;;;;;;;;21.40;99.90;;;;;;4978733;28;161433;-68
2022/10/28 12:25:23;;;;;;;;;;;21.20;99.90;;;;;;5053129;28;19917;-68
2022/10/28 12:27:51;;;;;;;;;;;21.10;99.90;;;;;;4979362;28;134260;-68
2022/10/28 12:30:25;;;;;;;;;;;21.00;99.90;;;;;;5026516;28;19917;-69
2022/10/28 12:32:57;;;;;;;;;;;20.90;99.90;;;;;;4973303;28;158832;-69
2022/10/28 12:35:24;;;;;;;;;;;20.90;99.90;;;;;;5030302;28;20307;-69
2022/10/28 12:37:53;;;;;;;;;;;20.80;99.90;;;;;;5001816;28;206656;-69
2022/10/28 12:40:43;;;;;;;;;;;20.80;99.90;;;;;;5010347;28;19928;-70
2022/10/28 12:43:09;;;;;;;;;;;20.80;99.90;;;;;;4964740;28;195566;-69
2022/10/28 12:45:37;;;;;;;;;;;20.70;99.90;;;;;;5013445;28;19921;-68
2022/10/28 12:48:26;;;;;;;;;;;20.70;99.90;;;;;;4975581;28;160111;-68
2022/10/28 12:51:25;;;;;;;;;;;20.70;99.90;;;;;;5018599;28;19921;-69
2022/10/28 12:54:00;;;;;;;;;;;20.70;99.90;;;;;;4980769;28;209268;-67
2022/10/28 12:56:31;;;;;;;;;;;20.60;99.90;;;;;;5004472;28;19928;-68
2022/10/28 12:59:03;;;;;;;;;;;20.60;99.90;;;;;;4955588;28;183983;-68
2022/10/28 13:01:30;;;;;;;;;;;20.60;99.90;;;;;;5013003;28;19979;-67
2022/10/28 13:03:56;;;;;;;;;;;20.60;99.90;;;;;;4954835;28;207912;-68
2022/10/28 13:06:24;;;;;;;;;;;20.60;99.90;;;;;;5028280;28;20305;-68
2022/10/28 13:08:59;;;;;;;;;;;20.60;99.90;;;;;;4972570;28;206914;-67
2022/10/28 13:11:42;;;;;;;;;;;20.60;99.90;;;;;;5012401;28;20450;-67
2022/10/28 13:14:08;;;;;;;;;;;20.60;99.90;;;;;;4966251;28;211012;-67
2022/10/28 13:16:36;;;;;;;;;;;20.60;99.90;;;;;;4994204;28;19947;-67
2022/10/28 13:19:02;;;;;;;;;;;20.70;99.90;;;;;;4990318;28;102370;-67
2022/10/28 13:21:31;;;;;;;;;;;20.80;99.90;;;;;;5022794;28;19971;-68
2022/10/28 13:23:57;;;;;;;;;;;20.90;99.90;;;;;;4951180;28;178327;-69
2022/10/28 13:26:23;;;;;;;;;;;21.10;99.90;;;;;;5001546;28;19920;-68
2022/10/28 13:28:51;;;;;;;;;;;21.50;99.90;;;;;;4976694;28;210713;-68
2022/10/28 13:31:19;;;;;;;;;;;21.90;99.90;;;;;;5009454;28;19940;-69
2022/10/28 13:34:05;;;;;;;;;;;22.30;99.90;;;;;;4979335;28;178804;-67
2022/10/28 13:36:37;;;;;;;;;;;22.40;99.90;;;;;;5023613;28;19924;-66
2022/10/28 13:39:05;;;;;;;;;;;22.50;99.90;;;;;;4971114;28;170525;-67
2022/10/28 13:41:35;;;;;;;;;;;22.60;99.90;;;;;;5020623;28;20398;-66
2022/10/28 13:44:07;;;;;;;;;;;22.20;99.90;;;;;;4980578;28;200490;-67
2022/10/28 13:46:52;;;;;;;;;;;21.90;99.90;;;;;;5042466;28;19925;-67
2022/10/28 13:49:27;;;;;;;;;;;21.70;99.90;;;;;;4976532;28;180855;-67
2022/10/28 13:52:16;;;;;;;;;;;21.40;99.90;;;;;;5019983;28;19921;-67
2022/10/28 13:54:42;;;;;;;;;;;21.20;99.90;;;;;;4963451;28;219923;-67
2022/10/28 13:57:12;;;;;;;;;;;21.00;99.90;;;;;;5019285;28;19921;-67
2022/10/28 13:59:47;;;;;;;;;;;20.90;99.90;;;;;;5002617;28;205118;-68
2022/10/28 14:02:17;;;;;;;;;;;20.80;99.90;;;;;;5014011;28;19917;-67
2022/10/28 14:04:52;;;;;;;;;;;20.70;99.90;;;;;;4954836;28;207477;-67
2022/10/28 14:07:20;;;;;;;;;;;20.60;99.90;;;;;;5023641;28;19917;-67
2022/10/28 14:09:47;;;;;;;;;;;20.50;99.90;;;;;;4958762;28;150789;-67
2022/10/28 14:12:13;;;;;;;;;;;20.40;99.90;;;;;;5026877;28;20560;-67
2022/10/28 14:14:50;;;;;;;;;;;20.30;99.90;;;;;;4967174;28;200075;-66
2022/10/28 14:17:25;;;;;;;;;;;20.20;99.90;;;;;;5021591;28;19927;-66
2022/10/28 14:19:52;;;;;;;;;;;20.10;99.90;;;;;;5002139;28;206939;-67
2022/10/28 14:22:32;;;;;;;;;;;20.10;99.90;;;;;;5014647;28;19956;-67
2022/10/28 14:24:58;;;;;;;;;;;20.00;99.90;;;;;;4975637;28;206566;-67